Nordlys — YJTS2 — position and weather

sailwx.info

Track history (hours):
 
Tides and Currents Weather Stations Pressure Air Temp Water Temp Dewpoint Dewpoint Depression Visibility Wind Speed Wind Dir Waves Ship Positions

Nordlys

Ship's website: http://fairtransport.eu/category/nordlys/

Last reported at 2019-Jun-14 20:55 UTC. Time now 2019-Jun-16 01:06 UTC.
Position N 55°41' E 012°36'.

Length 20 m; draft 3 m.

MMSI: 577228000.

Date/timePositionNaut miles runAvg speedWind from/ knotsBaromVisibWave heightAir tempDewpointWater temp
2019-Jun-14 20:55N 55°41' E 012°36'0 0.0
2019-Jun-14 20:25N 55°41' E 012°36'0 0.0
2019-Jun-14 19:59N 55°41' E 012°36'0 0.0
2019-Jun-14 19:25N 55°41' E 012°36'0 0.0
2019-Jun-14 18:55N 55°41' E 012°36'0 0.0
2019-Jun-14 18:29N 55°41' E 012°36'0 0.0
2019-Jun-14 17:59N 55°41' E 012°36'0 0.0
2019-Jun-14 17:30N 55°41' E 012°36'0 0.0
2019-Jun-14 17:00N 55°41' E 012°36'1 1.8
2019-Jun-14 16:25N 55°41' E 012°35'  
2019-Jun-11 11:09N 55°40' E 012°35'0 0.0
2019-Jun-11 10:36N 55°40' E 012°35'0 0.1
2019-Jun-11 10:28N 55°40' E 012°35'1 0.2
2019-Jun-11 04:51N 55°41' E 012°36'0 0.0
2019-Jun-11 04:29N 55°41' E 012°36'0 0.0
2019-Jun-11 04:00N 55°41' E 012°36'0 0.0
2019-Jun-11 03:28N 55°41' E 012°36'0 0.0
2019-Jun-11 02:59N 55°41' E 012°36'0 0.0
2019-Jun-11 02:24N 55°41' E 012°36'0 0.0
2019-Jun-11 02:00N 55°41' E 012°36'1 2.8
2019-Jun-11 01:30N 55°43' E 012°37'2 3.2
2019-Jun-11 01:00N 55°44' E 012°39'2 3.3
2019-Jun-11 00:30N 55°45' E 012°40'3 5.6
2019-Jun-11 00:00N 55°48' E 012°40'3 6.5
2019-Jun-10 23:30N 55°51' E 012°39'3 5.7
2019-Jun-10 23:00N 55°54' E 012°38'3 5.4
2019-Jun-10 22:30N 55°56' E 012°38'3 5.9
2019-Jun-10 22:00N 55°59' E 012°38'3 6.0
2019-Jun-10 21:30N 56°02' E 012°38'3 4.6
2019-Jun-10 20:55N 56°05' E 012°36'42 3.7
2019-Jun-10 09:41N 56°45' E 012°13'1 3.1
2019-Jun-10 09:28N 56°45' E 012°12'21 1.6
2019-Jun-09 19:59N 57°05' E 011°57'5 5.0
2019-Jun-09 19:00N 57°08' E 011°50'2 4.9
2019-Jun-09 18:30N 57°09' E 011°46'2 4.7
2019-Jun-09 18:00N 57°11' E 011°43'2 4.4
2019-Jun-09 17:30N 57°12' E 011°40'2 3.9
2019-Jun-09 17:00N 57°14' E 011°37'2 3.8
2019-Jun-09 16:30N 57°15' E 011°34'2 3.9
2019-Jun-09 16:00N 57°16' E 011°31'2 3.4
2019-Jun-09 15:30N 57°17' E 011°29'2 3.9
2019-Jun-09 15:00N 57°18' E 011°26'3 5.4
2019-Jun-09 14:30N 57°21' E 011°24'3 6.1
2019-Jun-09 14:00N 57°23' E 011°21'2 4.5
2019-Jun-09 13:30N 57°25' E 011°20'3 5.2
2019-Jun-09 13:00N 57°28' E 011°18'2 4.5
2019-Jun-09 12:30N 57°30' E 011°16'3 5.8
2019-Jun-09 12:00N 57°32' E 011°14'3 5.4
2019-Jun-09 11:30N 57°35' E 011°12'3 5.8
2019-Jun-09 11:00N 57°38' E 011°11'2 4.8
2019-Jun-09 10:30N 57°40' E 011°09'2 4.3
2019-Jun-09 10:00N 57°42' E 011°07'2 4.3
2019-Jun-09 09:30N 57°44' E 011°04'2 3.5
2019-Jun-09 09:00N 57°42' E 011°07'2 4.7
2019-Jun-09 08:30N 57°41' E 011°11'3 5.5
2019-Jun-09 08:00N 57°40' E 011°16'1 2.6
2019-Jun-09 07:31N 57°41' E 011°14'3 6.4
2019-Jun-09 07:00N 57°43' E 011°09'4 7.2
2019-Jun-09 06:30N 57°45' E 011°03'3 6.7
2019-Jun-09 06:00N 57°46' E 010°57'3 6.8
2019-Jun-09 05:30N 57°48' E 010°52'3 6.8
2019-Jun-09 05:00N 57°49' E 010°46'40 7.8
2019-Jun-08 23:53N 57°52' E 009°32'3 7.8
2019-Jun-08 23:29N 57°52' E 009°26'4 7.7
2019-Jun-08 22:59N 57°52' E 009°18'4 7.2
2019-Jun-08 22:30N 57°53' E 009°12'3 7.1
2019-Jun-08 22:00N 57°53' E 009°05'3 6.8
2019-Jun-08 21:30N 57°54' E 008°59'3 5.9
2019-Jun-08 21:00N 57°55' E 008°54'3 6.0
2019-Jun-08 20:29N 57°55' E 008°48'3 6.3
2019-Jun-08 20:00N 57°55' E 008°42'3 6.3
2019-Jun-08 19:30N 57°55' E 008°36'3 6.1
2019-Jun-08 19:00N 57°55' E 008°31'3 5.9
2019-Jun-08 18:30N 57°55' E 008°25'3 5.7
2019-Jun-08 18:00N 57°55' E 008°20'3 5.4
2019-Jun-08 17:30N 57°55' E 008°15'3 5.7
2019-Jun-08 17:00N 57°55' E 008°09'3 6.3
2019-Jun-08 16:30N 57°55' E 008°03'3 6.8
2019-Jun-08 16:00N 57°55' E 007°57'3 6.5
2019-Jun-08 15:31N 57°55' E 007°51'4 6.6
2019-Jun-08 14:58N 57°55' E 007°44'3 6.4
2019-Jun-08 14:30N 57°54' E 007°39'3 5.7
2019-Jun-08 14:00N 57°52' E 007°34'2 5.0
2019-Jun-08 13:30N 57°52' E 007°30'3 5.4
2019-Jun-08 13:00N 57°51' E 007°25'3 5.1
2019-Jun-08 12:30N 57°50' E 007°20'2 4.9
2019-Jun-08 12:00N 57°49' E 007°16'2 4.4
2019-Jun-08 11:30N 57°48' E 007°13'2 3.1
2019-Jun-08 10:59N 57°48' E 007°10'2 3.8
2019-Jun-08 10:29N 57°47' E 007°07'2 4.1
2019-Jun-08 10:00N 57°46' E 007°03'2 4.2
2019-Jun-08 09:28N 57°45' E 006°59'2 4.4
2019-Jun-08 08:59N 57°44' E 006°56'2 3.6
2019-Jun-08 08:30N 57°43' E 006°53'2 4.0
2019-Jun-08 08:00N 57°42' E 006°50'2 4.4
2019-Jun-08 07:30N 57°41' E 006°47'2 4.1
2019-Jun-08 07:00N 57°39' E 006°44'2 3.3
2019-Jun-08 06:28N 57°38' E 006°41'2 3.2
2019-Jun-08 05:59N 57°37' E 006°39'1 3.0
2019-Jun-08 05:29N 57°36' E 006°38'2 3.7
2019-Jun-08 05:00N 57°34' E 006°37'2 4.2
2019-Jun-08 04:30N 57°32' E 006°36'2 4.9
2019-Jun-08 04:00N 57°30' E 006°35'2 4.6
2019-Jun-08 03:30N 57°27' E 006°34'3 5.1
2019-Jun-08 02:59N 57°25' E 006°33'2 5.1
2019-Jun-08 02:30N 57°22' E 006°33'2 4.5
2019-Jun-08 02:00N 57°20' E 006°33'3 6.1
2019-Jun-08 01:28N 57°17' E 006°33'3 5.8
2019-Jun-08 01:00N 57°14' E 006°33'2 5.0
2019-Jun-08 00:30N 57°12' E 006°34'2 3.9
2019-Jun-08 00:00N 57°10' E 006°33'2 4.1
2019-Jun-07 23:30N 57°08' E 006°33'2 3.3
2019-Jun-07 23:00N 57°06' E 006°33'1 2.7
2019-Jun-07 22:30N 57°05' E 006°33'2 3.0
2019-Jun-07 21:56N 57°03' E 006°32'2 3.6
2019-Jun-07 21:29N 57°01' E 006°32'1 1.9
2019-Jun-07 20:59N 57°01' E 006°31'2 4.3
2019-Jun-07 20:30N 56°59' E 006°32'2 4.4
2019-Jun-07 19:59N 56°56' E 006°33'2 4.1
2019-Jun-07 19:30N 56°55' E 006°35'2 4.2
2019-Jun-07 19:00N 56°53' E 006°37'2 4.4
2019-Jun-07 18:31N 56°51' E 006°38'4 4.4
2019-Jun-07 17:37N 56°48' E 006°43'0 3.3
2019-Jun-07 17:30N 56°48' E 006°43'1 3.0
2019-Jun-07 17:00N 56°46' E 006°45'1 2.1
2019-Jun-07 16:30N 56°46' E 006°46'1 2.1
2019-Jun-07 16:00N 56°45' E 006°47'1 2.7
2019-Jun-07 15:30N 56°43' E 006°48'1 2.4
2019-Jun-07 15:00N 56°42' E 006°48'1 1.4
2019-Jun-07 14:30N 56°41' E 006°48'1 1.1
2019-Jun-07 14:00N 56°41' E 006°47'1 1.3
2019-Jun-07 13:29N 56°40' E 006°46'1 2.3
2019-Jun-07 13:00N 56°40' E 006°45'2 3.1
2019-Jun-07 12:30N 56°39' E 006°42'2 3.3
2019-Jun-07 12:00N 56°38' E 006°40'2 3.0
2019-Jun-07 11:29N 56°37' E 006°38'2 3.1
2019-Jun-07 11:00N 56°36' E 006°36'2 3.7
2019-Jun-07 10:30N 56°35' E 006°33'2 3.8
2019-Jun-07 10:00N 56°34' E 006°30'2 3.1
2019-Jun-07 09:30N 56°33' E 006°28'1 2.4
2019-Jun-07 08:59N 56°32' E 006°27'1 2.4
2019-Jun-07 08:30N 56°30' E 006°27'1 2.5
2019-Jun-07 08:00N 56°29' E 006°26'1 1.5
2019-Jun-07 07:30N 56°29' E 006°25'1 1.0
2019-Jun-07 06:48N 56°28' E 006°24'0 1.5
2019-Jun-07 06:29N 56°28' E 006°23'1 1.9
2019-Jun-07 05:59N 56°28' E 006°22'1 3.0
2019-Jun-07 05:30N 56°29' E 006°19'1 2.8
2019-Jun-07 05:00N 56°29' E 006°17'1 2.8
2019-Jun-07 04:30N 56°28' E 006°14'1 2.5
2019-Jun-07 03:59N 56°28' E 006°12'1 2.7
2019-Jun-07 03:30N 56°28' E 006°09'1 2.8
2019-Jun-07 03:00N 56°28' E 006°07'1 2.5
2019-Jun-07 02:30N 56°28' E 006°05'1 2.6
2019-Jun-07 02:00N 56°28' E 006°02'1 2.6
2019-Jun-07 01:30N 56°28' E 005°60'2 3.4
2019-Jun-07 01:00N 56°27' E 005°57'2 3.6
2019-Jun-07 00:30N 56°27' E 005°54'2 4.0
2019-Jun-06 23:59N 56°26' E 005°50'2 4.0
2019-Jun-06 23:30N 56°26' E 005°47'2 4.4
2019-Jun-06 23:00N 56°23' E 005°47'2 3.9
2019-Jun-06 22:30N 56°22' E 005°48'1 2.5
2019-Jun-06 22:00N 56°21' E 005°49'2 3.1
2019-Jun-06 21:29N 56°19' E 005°49'3 4.2
2019-Jun-06 20:41N 56°16' E 005°50'85 4.4
2019-Jun-06 01:24N 54°54' E 005°11'2 5.7
2019-Jun-06 01:00N 54°52' E 005°14'3 5.9
2019-Jun-06 00:30N 54°50' E 005°18'3 5.1
2019-Jun-05 23:59N 54°49' E 005°22'2 4.3
2019-Jun-05 23:30N 54°47' E 005°24'2 4.6
2019-Jun-05 22:57N 54°45' E 005°28'  
Track history (hours):
 
Tides and Currents Weather Stations Pressure Air Temp Water Temp Dewpoint Dewpoint Depression Visibility Wind Speed Wind Dir Waves Ship Positions

Nordlys

Ship's website: http://fairtransport.eu/category/nordlys/

Last reported at 2019-Jun-14 20:55 UTC. Time now 2019-Jun-16 01:06 UTC.
Position N 55°41' E 012°36'.

Length 20 m; draft 3 m.

MMSI: 577228000.

Date/timePositionNaut miles runAvg speedWind from/ knotsBaromVisibWave heightAir tempDewpointWater temp
2019-Jun-14 20:55N 55°41' E 012°36'0 0.0
2019-Jun-14 20:25N 55°41' E 012°36'0 0.0
2019-Jun-14 19:59N 55°41' E 012°36'0 0.0
2019-Jun-14 19:25N 55°41' E 012°36'0 0.0
2019-Jun-14 18:55N 55°41' E 012°36'0 0.0
2019-Jun-14 18:29N 55°41' E 012°36'0 0.0
2019-Jun-14 17:59N 55°41' E 012°36'0 0.0
2019-Jun-14 17:30N 55°41' E 012°36'0 0.0
2019-Jun-14 17:00N 55°41' E 012°36'1 1.8
2019-Jun-14 16:25N 55°41' E 012°35'  
2019-Jun-11 11:09N 55°40' E 012°35'0 0.0
2019-Jun-11 10:36N 55°40' E 012°35'0 0.1
2019-Jun-11 10:28N 55°40' E 012°35'1 0.2
2019-Jun-11 04:51N 55°41' E 012°36'0 0.0
2019-Jun-11 04:29N 55°41' E 012°36'0 0.0
2019-Jun-11 04:00N 55°41' E 012°36'0 0.0
2019-Jun-11 03:28N 55°41' E 012°36'0 0.0
2019-Jun-11 02:59N 55°41' E 012°36'0 0.0
2019-Jun-11 02:24N 55°41' E 012°36'0 0.0
2019-Jun-11 02:00N 55°41' E 012°36'1 2.8
2019-Jun-11 01:30N 55°43' E 012°37'2 3.2
2019-Jun-11 01:00N 55°44' E 012°39'2 3.3
2019-Jun-11 00:30N 55°45' E 012°40'3 5.6
2019-Jun-11 00:00N 55°48' E 012°40'3 6.5
2019-Jun-10 23:30N 55°51' E 012°39'3 5.7
2019-Jun-10 23:00N 55°54' E 012°38'3 5.4
2019-Jun-10 22:30N 55°56' E 012°38'3 5.9
2019-Jun-10 22:00N 55°59' E 012°38'3 6.0
2019-Jun-10 21:30N 56°02' E 012°38'3 4.6
2019-Jun-10 20:55N 56°05' E 012°36'42 3.7
2019-Jun-10 09:41N 56°45' E 012°13'1 3.1
2019-Jun-10 09:28N 56°45' E 012°12'21 1.6
2019-Jun-09 19:59N 57°05' E 011°57'5 5.0
2019-Jun-09 19:00N 57°08' E 011°50'2 4.9
2019-Jun-09 18:30N 57°09' E 011°46'2 4.7
2019-Jun-09 18:00N 57°11' E 011°43'2 4.4
2019-Jun-09 17:30N 57°12' E 011°40'2 3.9
2019-Jun-09 17:00N 57°14' E 011°37'2 3.8
2019-Jun-09 16:30N 57°15' E 011°34'2 3.9
2019-Jun-09 16:00N 57°16' E 011°31'2 3.4
2019-Jun-09 15:30N 57°17' E 011°29'2 3.9
2019-Jun-09 15:00N 57°18' E 011°26'3 5.4
2019-Jun-09 14:30N 57°21' E 011°24'3 6.1
2019-Jun-09 14:00N 57°23' E 011°21'2 4.5
2019-Jun-09 13:30N 57°25' E 011°20'3 5.2
2019-Jun-09 13:00N 57°28' E 011°18'2 4.5
2019-Jun-09 12:30N 57°30' E 011°16'3 5.8
2019-Jun-09 12:00N 57°32' E 011°14'3 5.4
2019-Jun-09 11:30N 57°35' E 011°12'3 5.8
2019-Jun-09 11:00N 57°38' E 011°11'2 4.8
2019-Jun-09 10:30N 57°40' E 011°09'2 4.3
2019-Jun-09 10:00N 57°42' E 011°07'2 4.3
2019-Jun-09 09:30N 57°44' E 011°04'2 3.5
2019-Jun-09 09:00N 57°42' E 011°07'2 4.7
2019-Jun-09 08:30N 57°41' E 011°11'3 5.5
2019-Jun-09 08:00N 57°40' E 011°16'1 2.6
2019-Jun-09 07:31N 57°41' E 011°14'3 6.4
2019-Jun-09 07:00N 57°43' E 011°09'4 7.2
2019-Jun-09 06:30N 57°45' E 011°03'3 6.7
2019-Jun-09 06:00N 57°46' E 010°57'3 6.8
2019-Jun-09 05:30N 57°48' E 010°52'3 6.8
2019-Jun-09 05:00N 57°49' E 010°46'40 7.8
2019-Jun-08 23:53N 57°52' E 009°32'3 7.8
2019-Jun-08 23:29N 57°52' E 009°26'4 7.7
2019-Jun-08 22:59N 57°52' E 009°18'4 7.2
2019-Jun-08 22:30N 57°53' E 009°12'3 7.1
2019-Jun-08 22:00N 57°53' E 009°05'3 6.8
2019-Jun-08 21:30N 57°54' E 008°59'3 5.9
2019-Jun-08 21:00N 57°55' E 008°54'3 6.0
2019-Jun-08 20:29N 57°55' E 008°48'3 6.3
2019-Jun-08 20:00N 57°55' E 008°42'3 6.3
2019-Jun-08 19:30N 57°55' E 008°36'3 6.1
2019-Jun-08 19:00N 57°55' E 008°31'3 5.9
2019-Jun-08 18:30N 57°55' E 008°25'3 5.7
2019-Jun-08 18:00N 57°55' E 008°20'3 5.4
2019-Jun-08 17:30N 57°55' E 008°15'3 5.7
2019-Jun-08 17:00N 57°55' E 008°09'3 6.3
2019-Jun-08 16:30N 57°55' E 008°03'3 6.8
2019-Jun-08 16:00N 57°55' E 007°57'3 6.5
2019-Jun-08 15:31N 57°55' E 007°51'4 6.6
2019-Jun-08 14:58N 57°55' E 007°44'3 6.4
2019-Jun-08 14:30N 57°54' E 007°39'3 5.7
2019-Jun-08 14:00N 57°52' E 007°34'2 5.0
2019-Jun-08 13:30N 57°52' E 007°30'3 5.4
2019-Jun-08 13:00N 57°51' E 007°25'3 5.1
2019-Jun-08 12:30N 57°50' E 007°20'2 4.9
2019-Jun-08 12:00N 57°49' E 007°16'2 4.4
2019-Jun-08 11:30N 57°48' E 007°13'2 3.1
2019-Jun-08 10:59N 57°48' E 007°10'2 3.8
2019-Jun-08 10:29N 57°47' E 007°07'2 4.1
2019-Jun-08 10:00N 57°46' E 007°03'2 4.2
2019-Jun-08 09:28N 57°45' E 006°59'2 4.4
2019-Jun-08 08:59N 57°44' E 006°56'2 3.6
2019-Jun-08 08:30N 57°43' E 006°53'2 4.0
2019-Jun-08 08:00N 57°42' E 006°50'2 4.4
2019-Jun-08 07:30N 57°41' E 006°47'2 4.1
2019-Jun-08 07:00N 57°39' E 006°44'2 3.3
2019-Jun-08 06:28N 57°38' E 006°41'2 3.2
2019-Jun-08 05:59N 57°37' E 006°39'1 3.0
2019-Jun-08 05:29N 57°36' E 006°38'2 3.7
2019-Jun-08 05:00N 57°34' E 006°37'2 4.2
2019-Jun-08 04:30N 57°32' E 006°36'2 4.9
2019-Jun-08 04:00N 57°30' E 006°35'2 4.6
2019-Jun-08 03:30N 57°27' E 006°34'3 5.1
2019-Jun-08 02:59N 57°25' E 006°33'2 5.1
2019-Jun-08 02:30N 57°22' E 006°33'2 4.5
2019-Jun-08 02:00N 57°20' E 006°33'3 6.1
2019-Jun-08 01:28N 57°17' E 006°33'3 5.8
2019-Jun-08 01:00N 57°14' E 006°33'2 5.0
2019-Jun-08 00:30N 57°12' E 006°34'2 3.9
2019-Jun-08 00:00N 57°10' E 006°33'2 4.1
2019-Jun-07 23:30N 57°08' E 006°33'2 3.3
2019-Jun-07 23:00N 57°06' E 006°33'1 2.7
2019-Jun-07 22:30N 57°05' E 006°33'2 3.0
2019-Jun-07 21:56N 57°03' E 006°32'2 3.6
2019-Jun-07 21:29N 57°01' E 006°32'1 1.9
2019-Jun-07 20:59N 57°01' E 006°31'2 4.3
2019-Jun-07 20:30N 56°59' E 006°32'2 4.4
2019-Jun-07 19:59N 56°56' E 006°33'2 4.1
2019-Jun-07 19:30N 56°55' E 006°35'2 4.2
2019-Jun-07 19:00N 56°53' E 006°37'2 4.4
2019-Jun-07 18:31N 56°51' E 006°38'4 4.4
2019-Jun-07 17:37N 56°48' E 006°43'0 3.3
2019-Jun-07 17:30N 56°48' E 006°43'1 3.0
2019-Jun-07 17:00N 56°46' E 006°45'1 2.1
2019-Jun-07 16:30N 56°46' E 006°46'1 2.1
2019-Jun-07 16:00N 56°45' E 006°47'1 2.7
2019-Jun-07 15:30N 56°43' E 006°48'1 2.4
2019-Jun-07 15:00N 56°42' E 006°48'1 1.4
2019-Jun-07 14:30N 56°41' E 006°48'1 1.1
2019-Jun-07 14:00N 56°41' E 006°47'1 1.3
2019-Jun-07 13:29N 56°40' E 006°46'1 2.3
2019-Jun-07 13:00N 56°40' E 006°45'2 3.1
2019-Jun-07 12:30N 56°39' E 006°42'2 3.3
2019-Jun-07 12:00N 56°38' E 006°40'2 3.0
2019-Jun-07 11:29N 56°37' E 006°38'2 3.1
2019-Jun-07 11:00N 56°36' E 006°36'2 3.7
2019-Jun-07 10:30N 56°35' E 006°33'2 3.8
2019-Jun-07 10:00N 56°34' E 006°30'2 3.1
2019-Jun-07 09:30N 56°33' E 006°28'1 2.4
2019-Jun-07 08:59N 56°32' E 006°27'1 2.4
2019-Jun-07 08:30N 56°30' E 006°27'1 2.5
2019-Jun-07 08:00N 56°29' E 006°26'1 1.5
2019-Jun-07 07:30N 56°29' E 006°25'1 1.0
2019-Jun-07 06:48N 56°28' E 006°24'0 1.5
2019-Jun-07 06:29N 56°28' E 006°23'1 1.9
2019-Jun-07 05:59N 56°28' E 006°22'1 3.0
2019-Jun-07 05:30N 56°29' E 006°19'1 2.8
2019-Jun-07 05:00N 56°29' E 006°17'1 2.8
2019-Jun-07 04:30N 56°28' E 006°14'1 2.5
2019-Jun-07 03:59N 56°28' E 006°12'1 2.7
2019-Jun-07 03:30N 56°28' E 006°09'1 2.8
2019-Jun-07 03:00N 56°28' E 006°07'1 2.5
2019-Jun-07 02:30N 56°28' E 006°05'1 2.6
2019-Jun-07 02:00N 56°28' E 006°02'1 2.6
2019-Jun-07 01:30N 56°28' E 005°60'2 3.4
2019-Jun-07 01:00N 56°27' E 005°57'2 3.6
2019-Jun-07 00:30N 56°27' E 005°54'2 4.0
2019-Jun-06 23:59N 56°26' E 005°50'2 4.0
2019-Jun-06 23:30N 56°26' E 005°47'2 4.4
2019-Jun-06 23:00N 56°23' E 005°47'2 3.9
2019-Jun-06 22:30N 56°22' E 005°48'1 2.5
2019-Jun-06 22:00N 56°21' E 005°49'2 3.1
2019-Jun-06 21:29N 56°19' E 005°49'3 4.2
2019-Jun-06 20:41N 56°16' E 005°50'85 4.4
2019-Jun-06 01:24N 54°54' E 005°11'2 5.7
2019-Jun-06 01:00N 54°52' E 005°14'3 5.9
2019-Jun-06 00:30N 54°50' E 005°18'3 5.1
2019-Jun-05 23:59N 54°49' E 005°22'2 4.3
2019-Jun-05 23:30N 54°47' E 005°24'2 4.6
2019-Jun-05 22:57N 54°45' E 005°28'  

Dump ship's entire track history